Time;durP1;ratioP1;P1;durP2;ratioP2;P2;SDS_P1;SDS_P2;PMS_P1;PMS_P2;Temp;Humidity;BMP_temperature;BMP_pressure;BME280_temperature;BME280_humidity;BME280_pressure;Samples;Min_cycle;Max_cycle;Signal;HPM_P1;HPM_P2
2023/10/11 00:01:29;;;;;;;11.02;6.82;;;;;15.30;98845.00;;;;5075495;28;20053;-65
2023/10/11 00:03:58;;;;;;;11.43;7.13;;;;;15.20;98843.00;;;;5074368;28;20071;-64
2023/10/11 00:06:33;;;;;;;15.00;8.50;;;;;15.10;98850.00;;;;5076550;28;20048;-66
2023/10/11 00:08:59;;;;;;;12.13;7.43;;;;;15.10;98847.00;;;;5077599;28;20075;-62
2023/10/11 00:11:27;;;;;;;16.85;7.05;;;;;15.00;98853.00;;;;5076661;28;20087;-64
2023/10/11 00:13:54;;;;;;;12.00;6.85;;;;;15.00;98848.00;;;;5074555;28;20053;-64
2023/10/11 00:16:21;;;;;;;14.60;7.65;;;;;15.00;98852.00;;;;5075959;28;20079;-65
2023/10/11 00:18:51;;;;;;;13.80;7.10;;;;;15.00;98847.00;;;;5075563;28;20092;-68
2023/10/11 00:21:18;;;;;;;12.60;6.20;;;;;15.00;98846.00;;;;5078203;28;20486;-62
2023/10/11 00:23:48;;;;;;;15.90;6.63;;;;;14.90;98845.00;;;;5076261;28;20052;-65
2023/10/11 00:26:17;;;;;;;11.63;7.07;;;;;15.00;98845.00;;;;5076754;28;20048;-64
2023/10/11 00:28:52;;;;;;;13.85;7.03;;;;;14.90;98852.00;;;;5060501;28;20048;-64
2023/10/11 00:31:19;;;;;;;11.48;6.90;;;;;14.90;98849.00;;;;5077532;28;20040;-63
2023/10/11 00:33:47;;;;;;;10.02;7.00;;;;;15.00;98847.00;;;;5077649;28;20057;-63
2023/10/11 00:36:15;;;;;;;11.13;6.63;;;;;14.90;98844.00;;;;5079365;28;20033;-65
2023/10/11 00:38:43;;;;;;;12.60;6.97;;;;;14.80;98845.00;;;;5062104;28;20048;-61
2023/10/11 00:41:17;;;;;;;12.80;7.05;;;;;14.70;98844.00;;;;5079457;28;20051;-61
2023/10/11 00:43:52;;;;;;;11.45;6.82;;;;;14.60;98841.00;;;;5078308;28;20048;-61
2023/10/11 00:46:25;;;;;;;;;;;;;14.70;98847.00;;;;5079494;28;20100;-64
2023/10/11 00:48:55;;;;;;;11.50;6.97;;;;;14.60;98834.00;;;;5079564;28;19915;-66
2023/10/11 00:51:25;;;;;;;13.05;7.10;;;;;14.70;98837.00;;;;5079234;28;20041;-65
2023/10/11 00:53:52;;;;;;;13.30;7.40;;;;;14.70;98833.00;;;;5061483;28;20425;-61
2023/10/11 00:56:20;;;;;;;9.73;7.07;;;;;14.70;98829.00;;;;5054748;28;20456;-61
2023/10/11 00:58:50;;;;;;;12.48;7.22;;;;;14.80;98828.00;;;;5053923;28;20041;-61
2023/10/11 01:01:17;;;;;;;12.77;7.72;;;;;14.70;98827.00;;;;5053678;28;20450;-61
2023/10/11 01:03:45;;;;;;;11.02;6.00;;;;;14.60;98818.00;;;;5035861;28;20045;-61
2023/10/11 01:06:12;;;;;;;13.80;6.85;;;;;14.60;98822.00;;;;5053592;28;20102;-63
2023/10/11 01:08:39;;;;;;;10.43;6.20;;;;;14.60;98819.00;;;;5035626;28;20056;-61
2023/10/11 01:11:14;;;;;;;11.52;6.72;;;;;14.70;98818.00;;;;5053460;28;20120;-61
2023/10/11 01:13:43;;;;;;;11.88;6.68;;;;;14.60;98814.00;;;;5052882;28;20044;-61
2023/10/11 01:16:11;;;;;;;11.35;6.90;;;;;14.60;98812.00;;;;5053150;28;20076;-61
2023/10/11 01:18:38;;;;;;;11.57;6.95;;;;;14.60;98808.00;;;;5051659;28;20064;-62
2023/10/11 01:21:05;;;;;;;12.02;6.43;;;;;14.50;98814.00;;;;5051961;28;20045;-62
2023/10/11 01:23:34;;;;;;;12.00;6.28;;;;;14.50;98811.00;;;;5052636;28;20045;-61
2023/10/11 01:26:08;;;;;;;11.73;7.13;;;;;14.60;98816.00;;;;5053024;28;20498;-62
2023/10/11 01:28:40;;;;;;;10.02;6.43;;;;;14.60;98812.00;;;;5051924;28;20172;-62
2023/10/11 01:31:08;;;;;;;10.87;5.97;;;;;14.60;98811.00;;;;5053365;28;20104;-61
2023/10/11 01:33:41;;;;;;;9.55;5.88;;;;;14.50;98810.00;;;;5053192;28;20049;-62
2023/10/11 01:36:15;;;;;;;9.43;6.15;;;;;14.50;98810.00;;;;5051900;28;20410;-62
2023/10/11 01:38:46;;;;;;;;;;;;;14.50;98805.00;;;;5052316;28;20049;-61
2023/10/11 01:41:20;;;;;;;9.27;5.90;;;;;14.40;98802.00;;;;5050875;28;19921;-61
2023/10/11 01:43:49;;;;;;;10.77;6.20;;;;;14.40;98802.00;;;;5034677;28;20421;-61
2023/10/11 01:46:18;;;;;;;11.88;6.85;;;;;14.30;98800.00;;;;5054675;28;20045;-61
2023/10/11 01:48:45;;;;;;;11.20;7.05;;;;;14.30;98801.00;;;;5051419;28;20096;-62
2023/10/11 01:51:38;;;;;;;10.95;7.25;;;;;14.20;98796.00;;;;5052970;28;20044;-62
2023/10/11 01:54:06;;;;;;;12.70;6.88;;;;;14.10;98788.00;;;;5050858;28;20057;-61
2023/10/11 01:56:33;;;;;;;9.75;6.88;;;;;14.00;98785.00;;;;5052577;28;20044;-61
2023/10/11 01:59:01;;;;;;;12.98;7.20;;;;;14.00;98787.00;;;;5051325;28;20186;-63
2023/10/11 02:01:30;;;;;;;11.30;6.93;;;;;13.90;98780.00;;;;5034784;28;20040;-61
2023/10/11 02:04:00;;;;;;;9.68;6.65;;;;;13.90;98772.00;;;;5051997;28;20497;-61
2023/10/11 02:06:31;;;;;;;12.85;6.93;;;;;13.80;98775.00;;;;5051215;28;20040;-61
2023/10/11 02:08:59;;;;;;;13.50;7.55;;;;;13.80;98773.00;;;;5051035;28;20044;-61
2023/10/11 02:11:29;;;;;;;13.45;7.30;;;;;13.90;98778.00;;;;5051049;28;20045;-64
2023/10/11 02:13:59;;;;;;;11.18;6.47;;;;;13.90;98781.00;;;;5052085;28;20041;-63
2023/10/11 02:16:30;;;;;;;14.82;7.25;;;;;13.90;98777.00;;;;5050763;28;20045;-61
2023/10/11 02:19:00;;;;;;;11.93;6.47;;;;;13.90;98774.00;;;;5050946;28;20059;-61
2023/10/11 02:21:29;;;;;;;14.77;7.25;;;;;13.80;98775.00;;;;5052050;28;20548;-62
2023/10/11 02:24:03;;;;;;;11.30;6.45;;;;;13.80;98776.00;;;;5051699;28;20520;-60
2023/10/11 02:26:31;;;;;;;14.02;6.53;;;;;13.90;98770.00;;;;5052034;28;20049;-61
2023/10/11 02:29:02;;;;;;;11.52;6.32;;;;;14.00;98773.00;;;;5051952;28;20107;-60
2023/10/11 02:31:33;;;;;;;11.88;6.30;;;;;14.00;98775.00;;;;5050698;28;20452;-62
2023/10/11 02:34:12;;;;;;;11.13;6.50;;;;;14.00;98767.00;;;;5051616;28;20132;-61
2023/10/11 02:36:42;;;;;;;13.57;7.68;;;;;14.00;98770.00;;;;5051978;28;20132;-63
2023/10/11 02:39:26;;;;;;;13.07;6.88;;;;;14.00;98770.00;;;;5052491;28;20041;-64
2023/10/11 02:41:57;;;;;;;12.52;7.15;;;;;14.00;98770.00;;;;5051586;28;20044;-64
2023/10/11 02:44:25;;;;;;;10.40;6.43;;;;;14.00;98765.00;;;;5050291;28;20045;-64
2023/10/11 02:46:52;;;;;;;11.70;6.93;;;;;13.90;98764.00;;;;5052104;28;20047;-64
2023/10/11 02:49:20;;;;;;;11.07;6.43;;;;;13.90;98768.00;;;;5052292;28;20044;-63
2023/10/11 02:51:53;;;;;;;10.68;5.95;;;;;13.90;98764.00;;;;5052313;28;20055;-63
2023/10/11 02:54:21;;;;;;;11.18;6.55;;;;;13.90;98753.00;;;;5055960;28;20120;-64
2023/10/11 02:56:47;;;;;;;11.40;7.05;;;;;13.90;98764.00;;;;5054583;28;20045;-63
2023/10/11 02:59:24;;;;;;;11.02;6.40;;;;;13.80;98761.00;;;;5056338;28;20069;-63
2023/10/11 03:02:04;;;;;;;11.18;6.65;;;;;13.80;98761.00;;;;5056116;28;20128;-62
2023/10/11 03:04:38;;;;;;;13.82;6.45;;;;;13.90;98766.00;;;;5054094;28;20099;-61
2023/10/11 03:07:12;;;;;;;13.43;6.30;;;;;13.80;98765.00;;;;5054278;28;20044;-61
2023/10/11 03:09:40;;;;;;;12.95;6.95;;;;;13.80;98761.00;;;;5054296;28;20068;-61
2023/10/11 03:12:30;;;;;;;12.63;6.50;;;;;13.80;98760.00;;;;5054366;28;20045;-61
2023/10/11 03:15:06;;;;;;;11.15;6.63;;;;;13.70;98767.00;;;;5054253;28;20067;-59
2023/10/11 03:17:34;;;;;;;;;;;;;13.70;98764.00;;;;5054236;28;20061;-61
2023/10/11 03:20:06;;;;;;;11.40;6.65;;;;;13.60;98759.00;;;;5055264;28;20441;-61
2023/10/11 03:22:35;;;;;;;11.00;7.10;;;;;13.60;98756.00;;;;5055505;28;20063;-61
2023/10/11 03:25:12;;;;;;;11.07;6.60;;;;;13.50;98749.00;;;;5054974;28;20044;-61
2023/10/11 03:27:48;;;;;;;15.02;7.32;;;;;13.50;98756.00;;;;5055992;28;20052;-62
2023/10/11 03:30:15;;;;;;;10.95;6.82;;;;;13.50;98745.00;;;;5055686;28;20054;-65
2023/10/11 03:32:44;;;;;;;12.10;7.05;;;;;13.40;98739.00;;;;5055207;28;20076;-58
2023/10/11 03:35:16;;;;;;;14.48;7.90;;;;;13.20;98739.00;;;;5054719;28;20053;-62
2023/10/11 03:37:57;;;;;;;30.27;18.35;;;;;13.10;98735.00;;;;5055084;28;20041;-63
2023/10/11 03:40:34;;;;;;;17.17;9.20;;;;;13.00;98736.00;;;;5055118;28;20045;-62
2023/10/11 03:43:04;;;;;;;13.75;7.13;;;;;13.10;98742.00;;;;5053972;28;20045;-61
2023/10/11 03:45:34;;;;;;;11.98;7.00;;;;;13.20;98732.00;;;;5054529;28;20083;-61
2023/10/11 03:48:01;;;;;;;12.05;8.13;;;;;13.20;98737.00;;;;5054928;28;20485;-63
2023/10/11 03:50:34;;;;;;;12.77;7.50;;;;;13.20;98741.00;;;;5054835;28;20033;-62
2023/10/11 03:53:10;;;;;;;10.38;6.47;;;;;13.20;98745.00;;;;5054752;28;20049;-61
2023/10/11 03:55:47;;;;;;;12.55;6.40;;;;;13.20;98742.00;;;;5053112;28;20037;-63
2023/10/11 03:58:33;;;;;;;13.95;6.97;;;;;13.20;98742.00;;;;5053453;28;20083;-61
2023/10/11 04:01:12;;;;;;;13.63;6.38;;;;;13.30;98744.00;;;;5054687;28;20084;-61
2023/10/11 04:03:40;;;;;;;10.88;6.65;;;;;13.30;98743.00;;;;5053128;28;20564;-65
2023/10/11 04:06:14;;;;;;;8.30;6.25;;;;;13.20;98743.00;;;;5054447;28;20129;-65
2023/10/11 04:09:02;;;;;;;;;;;;;13.20;98744.00;;;;5054727;28;20452;-65
2023/10/11 04:11:38;;;;;;;9.43;6.18;;;;;13.00;98737.00;;;;5054328;28;20340;-65
2023/10/11 04:14:17;;;;;;;10.98;6.95;;;;;13.00;98733.00;;;;5054212;28;20115;-65
2023/10/11 04:16:44;;;;;;;9.63;6.22;;;;;12.90;98736.00;;;;5054196;28;20557;-65
2023/10/11 04:19:12;;;;;;;18.42;10.55;;;;;13.00;98733.00;;;;5054270;28;20060;-64
2023/10/11 04:21:53;;;;;;;23.75;13.43;;;;;13.10;98736.00;;;;5054390;28;20553;-65
2023/10/11 04:24:20;;;;;;;14.60;8.30;;;;;13.10;98734.00;;;;5052486;28;20099;-63
2023/10/11 04:27:45;;;;;;;11.18;6.43;;;;;13.00;98737.00;;;;5054227;28;20047;-62
2023/10/11 04:29:44;;;;;;;14.88;7.93;;;;;12.90;98727.00;;;;5054046;28;20053;-63
2023/10/11 04:32:14;;;;;;;12.35;7.60;;;;;13.00;98723.00;;;;5054088;28;20520;-62
2023/10/11 04:34:48;;;;;;;15.52;6.93;;;;;13.00;98723.00;;;;5053422;28;20533;-62
2023/10/11 04:37:27;;;;;;;15.65;8.07;;;;;12.90;98729.00;;;;5054003;28;20045;-62
2023/10/11 04:39:57;;;;;;;13.10;7.95;;;;;12.80;98716.00;;;;5053971;28;20045;-63
2023/10/11 04:42:29;;;;;;;13.65;6.72;;;;;12.80;98711.00;;;;5053766;28;20045;-61
2023/10/11 04:44:57;;;;;;;14.88;7.28;;;;;12.80;98717.00;;;;5053283;28;20398;-62
2023/10/11 04:47:24;;;;;;;13.85;6.95;;;;;12.90;98724.00;;;;5053837;28;20049;-62
2023/10/11 04:49:54;;;;;;;10.05;6.65;;;;;12.90;98713.00;;;;5052688;28;20045;-62
2023/10/11 04:52:25;;;;;;;14.32;7.72;;;;;12.80;98719.00;;;;5053560;28;20049;-62
2023/10/11 04:54:55;;;;;;;13.38;7.57;;;;;12.80;98723.00;;;;5051868;28;20084;-64
2023/10/11 05:00:31;;;;;;;13.77;7.18;;;;;12.80;98721.00;;;;5051083;28;20049;-63
2023/10/11 05:03:02;;;;;;;11.90;6.68;;;;;12.90;98728.00;;;;5051063;28;20052;-63
2023/10/11 05:05:29;;;;;;;12.52;7.72;;;;;12.90;98726.00;;;;5051905;28;20533;-64
2023/10/11 05:08:05;;;;;;;12.90;7.13;;;;;13.00;98730.00;;;;5053272;28;20040;-64
2023/10/11 05:10:43;;;;;;;12.18;7.25;;;;;13.00;98725.00;;;;5053331;28;20124;-64
2023/10/11 05:13:13;;;;;;;18.88;7.95;;;;;13.00;98733.00;;;;5053299;28;20055;-63
2023/10/11 05:15:43;;;;;;;12.18;7.20;;;;;13.00;98732.00;;;;5052810;28;20048;-63
2023/10/11 05:18:10;;;;;;;12.40;7.18;;;;;13.00;98739.00;;;;5053277;28;20044;-63
2023/10/11 05:23:11;;;;;;;13.95;6.68;;;;;12.90;98728.00;;;;5053277;28;20094;-61
2023/10/11 05:25:56;;;;;;;11.15;6.18;;;;;12.90;98737.00;;;;5052552;28;20513;-62
2023/10/11 05:31:01;;;;;;;12.48;6.10;;;;;12.70;98731.00;;;;5052764;28;20045;-64
2023/10/11 05:33:41;;;;;;;10.27;6.68;;;;;12.70;98738.00;;;;5052648;28;20426;-64
2023/10/11 05:36:39;;;;;;;10.27;6.32;;;;;12.70;98732.00;;;;5053117;28;20037;-64
2023/10/11 05:53:13;;;;;;;15.50;7.85;;;;;12.70;98731.00;;;;5050264;28;20048;-63
2023/10/11 05:55:40;;;;;;;14.35;7.63;;;;;12.80;98735.00;;;;5047304;28;20057;-64
2023/10/11 05:58:07;;;;;;;14.02;7.55;;;;;12.90;98738.00;;;;5052574;28;20433;-64
2023/10/11 06:00:38;;;;;;;11.93;6.35;;;;;13.00;98739.00;;;;5051509;28;20469;-64
2023/10/11 06:03:06;;;;;;;15.93;7.50;;;;;13.00;98748.00;;;;5051357;28;20037;-64
2023/10/11 06:05:39;;;;;;;13.57;7.22;;;;;13.10;98749.00;;;;5052031;28;20041;-63
2023/10/11 06:08:13;;;;;;;12.55;7.10;;;;;13.10;98744.00;;;;5051306;28;20118;-64
2023/10/11 06:10:42;;;;;;;13.38;8.73;;;;;13.20;98747.00;;;;5052380;28;20052;-64
2023/10/11 06:13:15;;;;;;;12.90;7.57;;;;;13.20;98740.00;;;;5052627;28;20119;-64
2023/10/11 06:15:47;;;;;;;14.68;8.27;;;;;13.20;98740.00;;;;5051957;28;20106;-64
2023/10/11 06:21:05;;;;;;;12.73;6.72;;;;;13.20;98743.00;;;;5055135;28;20148;-64
2023/10/11 06:23:33;;;;;;;17.08;8.75;;;;;13.30;98739.00;;;;5052446;28;20079;-63
2023/10/11 06:25:59;;;;;;;12.25;7.95;;;;;13.30;98746.00;;;;5053229;28;20487;-63
2023/10/11 06:28:32;;;;;;;12.38;6.25;;;;;13.40;98750.00;;;;5052920;28;20052;-64
2023/10/11 06:31:00;;;;;;;11.35;7.35;;;;;13.50;98748.00;;;;5053667;28;20067;-64
2023/10/11 06:33:27;;;;;;;12.80;7.22;;;;;13.50;98762.00;;;;5053382;28;20041;-64
2023/10/11 06:35:54;;;;;;;12.68;6.45;;;;;13.40;98767.00;;;;5053528;28;20076;-64
2023/10/11 06:38:23;;;;;;;10.27;6.53;;;;;13.50;98767.00;;;;5052804;28;20448;-64
2023/10/11 06:40:54;;;;;;;10.70;6.55;;;;;13.50;98783.00;;;;5053274;28;20048;-64
2023/10/11 06:43:21;;;;;;;14.30;7.05;;;;;13.60;98776.00;;;;5053698;28;20083;-64
2023/10/11 06:45:49;;;;;;;14.18;6.60;;;;;13.70;98772.00;;;;5053343;28;20133;-64
2023/10/11 06:48:17;;;;;;;13.20;7.10;;;;;13.80;98782.00;;;;5053797;28;20045;-64
2023/10/11 06:50:43;;;;;;;10.73;6.53;;;;;13.90;98770.00;;;;5053632;28;20041;-64
2023/10/11 06:53:10;;;;;;;11.82;6.68;;;;;14.10;98777.00;;;;5053374;28;20383;-64
2023/10/11 06:55:39;;;;;;;15.15;7.05;;;;;14.20;98777.00;;;;5055334;28;20124;-63
2023/10/11 06:58:15;;;;;;;11.55;6.68;;;;;14.20;98775.00;;;;5055029;28;20494;-64
2023/10/11 07:00:45;;;;;;;12.73;6.80;;;;;14.30;98773.00;;;;5053412;28;20047;-63
2023/10/11 07:05:49;;;;;;;10.63;6.97;;;;;14.50;98773.00;;;;5052763;28;20095;-64
2023/10/11 07:08:18;;;;;;;23.38;16.42;;;;;14.60;98766.00;;;;5053054;28;20053;-64
2023/10/11 07:13:54;;;;;;;17.38;9.25;;;;;14.80;98760.00;;;;5061738;28;20052;-64
2023/10/11 07:16:27;;;;;;;13.48;8.50;;;;;14.90;98771.00;;;;5053370;28;20055;-65
2023/10/11 07:18:56;;;;;;;15.15;7.55;;;;;14.90;98776.00;;;;5052592;28;20041;-63
2023/10/11 07:21:40;;;;;;;12.95;7.53;;;;;14.90;98784.00;;;;5051750;28;20116;-63
2023/10/11 07:24:19;;;;;;;;;;;;;15.10;98776.00;;;;5051404;28;20040;-64
2023/10/11 07:29:14;;;;;;;13.70;6.90;;;;;15.30;98791.00;;;;5051342;28;20045;-63
2023/10/11 07:31:48;;;;;;;14.10;7.20;;;;;15.40;98785.00;;;;5051417;28;20041;-64
2023/10/11 07:34:22;;;;;;;15.10;7.18;;;;;15.50;98793.00;;;;5050990;28;20075;-64
2023/10/11 07:36:49;;;;;;;14.63;7.45;;;;;15.70;98788.00;;;;5051406;28;20044;-64
2023/10/11 07:39:25;;;;;;;14.68;7.75;;;;;15.80;98791.00;;;;5052323;28;20485;-63
2023/10/11 07:42:06;;;;;;;13.23;6.60;;;;;15.90;98784.00;;;;5055130;28;20048;-63
2023/10/11 07:44:37;;;;;;;13.27;6.88;;;;;16.00;98783.00;;;;5054463;28;20045;-64
2023/10/11 07:47:07;;;;;;;13.30;6.10;;;;;16.20;98794.00;;;;5054969;28;20037;-64
2023/10/11 07:49:40;;;;;;;12.23;6.70;;;;;16.30;98784.00;;;;5053698;28;20581;-64
2023/10/11 07:52:10;;;;;;;12.18;6.93;;;;;16.40;98779.00;;;;5054955;28;20120;-62
2023/10/11 07:54:39;;;;;;;12.60;6.80;;;;;16.60;98791.00;;;;5054606;28;20060;-63
2023/10/11 07:57:14;;;;;;;11.57;7.43;;;;;16.60;98788.00;;;;5054607;28;20410;-64
2023/10/11 07:59:45;;;;;;;13.30;7.85;;;;;16.70;98787.00;;;;5054944;28;20080;-64
2023/10/11 08:02:29;;;;;;;15.25;6.47;;;;;16.80;98794.00;;;;5054750;28;20045;-64
2023/10/11 08:04:57;;;;;;;12.68;6.63;;;;;16.90;98794.00;;;;5054120;28;20083;-64
2023/10/11 08:07:26;;;;;;;12.70;5.93;;;;;17.00;98795.00;;;;5054466;28;20053;-64
2023/10/11 08:09:52;;;;;;;13.15;6.28;;;;;17.10;98791.00;;;;5054487;28;20047;-64
2023/10/11 08:12:23;;;;;;;14.25;6.80;;;;;17.20;98800.00;;;;5054558;28;20056;-64
2023/10/11 08:14:56;;;;;;;18.13;6.55;;;;;17.30;98799.00;;;;5054188;28;20072;-63
2023/10/11 08:17:27;;;;;;;10.83;5.90;;;;;17.40;98795.00;;;;5053908;28;20056;-64
2023/10/11 08:19:54;;;;;;;12.73;5.60;;;;;17.50;98793.00;;;;5054617;28;20041;-65
2023/10/11 08:22:24;;;;;;;14.43;6.10;;;;;17.60;98802.00;;;;5054480;28;20080;-65
2023/10/11 08:24:56;;;;;;;13.80;6.53;;;;;17.70;98805.00;;;;5053854;28;20445;-65
2023/10/11 08:30:16;;;;;;;14.50;6.13;;;;;18.00;98814.00;;;;5053885;28;20494;-65
2023/10/11 08:32:45;;;;;;;9.95;5.75;;;;;18.10;98813.00;;;;5054167;28;20045;-65
2023/10/11 08:35:26;;;;;;;11.55;6.10;;;;;18.20;98815.00;;;;5053406;28;20048;-65
2023/10/11 08:37:53;;;;;;;13.60;6.00;;;;;18.40;98815.00;;;;5054029;28;20056;-65
2023/10/11 08:40:29;;;;;;;12.32;6.28;;;;;18.60;98825.00;;;;5053833;28;20048;-65
2023/10/11 08:43:00;;;;;;;11.73;5.75;;;;;18.70;98823.00;;;;5053925;28;20052;-64
2023/10/11 08:45:48;;;;;;;12.90;6.40;;;;;18.90;98819.00;;;;5053373;28;20045;-64
2023/10/11 08:48:16;;;;;;;14.20;6.10;;;;;19.00;98818.00;;;;5053855;28;20455;-65
2023/10/11 08:50:53;;;;;;;11.18;5.57;;;;;19.10;98817.00;;;;5052005;28;20041;-65
2023/10/11 08:53:21;;;;;;;10.10;5.20;;;;;19.20;98817.00;;;;5053693;28;20049;-65
2023/10/11 08:56:09;;;;;;;10.50;5.45;;;;;19.30;98818.00;;;;5051844;28;20121;-64
2023/10/11 08:58:36;;;;;;;15.73;5.45;;;;;19.40;98821.00;;;;5053705;28;20044;-65
2023/10/11 09:01:03;;;;;;;13.43;5.25;;;;;19.50;98817.00;;;;5053545;28;20098;-65
2023/10/11 09:03:31;;;;;;;14.38;5.60;;;;;19.60;98818.00;;;;5052837;28;20082;-64
2023/10/11 09:05:59;;;;;;;12.45;6.43;;;;;19.80;98818.00;;;;5053335;28;20064;-65
2023/10/11 09:08:31;;;;;;;19.17;5.55;;;;;19.90;98819.00;;;;5052000;28;20060;-64
2023/10/11 09:11:11;;;;;;;14.10;5.45;;;;;20.00;98814.00;;;;5053202;28;20061;-65
2023/10/11 09:13:40;;;;;;;16.83;5.30;;;;;20.10;98814.00;;;;5052848;28;20124;-65
2023/10/11 09:16:13;;;;;;;16.85;5.13;;;;;20.20;98823.00;;;;5052288;28;20045;-65
2023/10/11 09:18:46;;;;;;;12.88;5.95;;;;;20.30;98816.00;;;;5053126;28;20041;-64
2023/10/11 09:21:17;;;;;;;17.70;5.72;;;;;20.40;98819.00;;;;5053318;28;20052;-63
2023/10/11 09:23:49;;;;;;;18.05;6.15;;;;;20.50;98814.00;;;;5051437;28;20099;-63
2023/10/11 09:26:37;;;;;;;11.68;5.45;;;;;20.60;98812.00;;;;5053232;28;20493;-63
2023/10/11 09:29:16;;;;;;;10.88;5.18;;;;;20.70;98807.00;;;;5052276;28;20389;-63
2023/10/11 09:31:57;;;;;;;12.15;5.68;;;;;20.90;98813.00;;;;5052957;28;20055;-63
2023/10/11 09:34:32;;;;;;;15.10;5.45;;;;;21.00;98811.00;;;;5052356;28;20053;-63
2023/10/11 09:37:02;;;;;;;15.07;5.30;;;;;21.10;98807.00;;;;5052808;28;20111;-63
2023/10/11 09:39:29;;;;;;;11.05;5.53;;;;;21.20;98807.00;;;;5052962;28;20097;-62
2023/10/11 09:42:04;;;;;;;14.85;5.15;;;;;21.40;98814.00;;;;5052845;28;20379;-64
2023/10/11 09:44:39;;;;;;;7.78;4.68;;;;;21.60;98816.00;;;;5052314;28;20068;-63
2023/10/11 09:47:19;;;;;;;19.92;6.05;;;;;21.70;98814.00;;;;5052852;28;20051;-64
2023/10/11 09:49:47;;;;;;;10.82;4.57;;;;;21.80;98818.00;;;;5051264;28;20048;-64
2023/10/11 09:52:18;;;;;;;11.23;4.45;;;;;21.90;98822.00;;;;5052499;28;20072;-64
2023/10/11 09:54:47;;;;;;;11.60;5.05;;;;;22.00;98825.00;;;;5051839;28;20490;-65
2023/10/11 09:57:32;;;;;;;10.82;5.70;;;;;22.10;98818.00;;;;5052463;28;20041;-64
2023/10/11 10:00:14;;;;;;;15.48;6.28;;;;;22.20;98822.00;;;;5052469;28;20045;-65
2023/10/11 10:02:46;;;;;;;11.40;5.22;;;;;22.30;98813.00;;;;5051782;28;20045;-65
2023/10/11 10:05:13;;;;;;;40.78;7.72;;;;;22.50;98817.00;;;;5050494;28;20144;-64
2023/10/11 10:10:09;;;;;;;19.45;4.70;;;;;22.70;98817.00;;;;5052121;28;20045;-64
2023/10/11 10:12:41;;;;;;;10.73;5.60;;;;;22.80;98824.00;;;;5051156;28;20052;-65
2023/10/11 10:15:20;;;;;;;16.35;5.35;;;;;22.80;98810.00;;;;5051695;28;20090;-65
2023/10/11 10:17:56;;;;;;;16.75;5.05;;;;;22.90;98814.00;;;;5051995;28;20053;-64
2023/10/11 10:20:33;;;;;;;16.58;5.65;;;;;23.00;98812.00;;;;5052251;28;20107;-64
2023/10/11 10:23:16;;;;;;;18.42;5.03;;;;;23.20;98809.00;;;;5052477;28;20072;-64
2023/10/11 10:25:46;;;;;;;16.63;4.90;;;;;23.20;98814.00;;;;5051785;28;20614;-65
2023/10/11 10:28:42;;;;;;;14.63;4.55;;;;;23.30;98816.00;;;;5052042;28;20051;-65
2023/10/11 10:31:11;;;;;;;17.35;5.93;;;;;23.30;98803.00;;;;5052022;28;20064;-65
2023/10/11 10:33:39;;;;;;;12.38;6.68;;;;;23.40;98804.00;;;;5051392;28;20059;-65
2023/10/11 10:36:21;;;;;;;19.60;5.63;;;;;23.50;98811.00;;;;5052046;28;20083;-65
2023/10/11 10:39:00;;;;;;;17.02;5.55;;;;;23.60;98797.00;;;;5052009;28;20544;-64
2023/10/11 10:41:32;;;;;;;11.15;4.38;;;;;23.60;98808.00;;;;5050788;28;20124;-64
2023/10/11 10:44:09;;;;;;;24.08;4.93;;;;;23.70;98809.00;;;;5050062;28;20049;-66
2023/10/11 10:46:45;;;;;;;13.40;4.53;;;;;23.80;98801.00;;;;5051749;28;20521;-67
2023/10/11 10:49:12;;;;;;;14.60;5.10;;;;;23.80;98800.00;;;;5051942;28;20041;-63
2023/10/11 10:51:42;;;;;;;11.05;4.93;;;;;23.80;98796.00;;;;5051967;28;20033;-64
2023/10/11 10:54:14;;;;;;;12.95;5.03;;;;;23.90;98786.00;;;;5051390;28;20036;-64
2023/10/11 10:56:52;;;;;;;21.48;5.50;;;;;24.00;98797.00;;;;5050603;28;20055;-65
2023/10/11 10:59:20;;;;;;;9.50;4.72;;;;;24.00;98782.00;;;;5052063;28;20040;-65
2023/10/11 11:01:50;;;;;;;11.55;4.18;;;;;24.10;98797.00;;;;5051611;28;20041;-64
2023/10/11 11:04:24;;;;;;;13.57;4.70;;;;;24.20;98791.00;;;;5051639;28;20132;-63
2023/10/11 11:06:53;;;;;;;16.73;3.70;;;;;24.30;98783.00;;;;5052022;28;20176;-63
2023/10/11 11:09:25;;;;;;;16.65;4.47;;;;;24.30;98792.00;;;;5052446;28;20052;-65
2023/10/11 11:11:57;;;;;;;21.52;4.78;;;;;24.30;98780.00;;;;5050508;28;20064;-65
2023/10/11 11:14:25;;;;;;;13.95;4.53;;;;;24.30;98777.00;;;;5054103;28;20490;-64
2023/10/11 11:17:00;;;;;;;11.77;4.60;;;;;24.50;98786.00;;;;5055528;28;20068;-65
2023/10/11 11:19:27;;;;;;;10.65;4.72;;;;;24.50;98783.00;;;;5055441;28;20045;-65
2023/10/11 11:22:12;;;;;;;15.35;4.50;;;;;24.60;98777.00;;;;5055536;28;20551;-65
2023/10/11 11:24:43;;;;;;;16.55;4.97;;;;;24.70;98773.00;;;;5054695;28;20056;-65
2023/10/11 11:27:32;;;;;;;14.57;4.85;;;;;24.80;98782.00;;;;5055366;28;20131;-65
2023/10/11 11:30:15;;;;;;;8.13;3.70;;;;;24.80;98773.00;;;;5054061;28;20044;-63
2023/10/11 11:32:45;;;;;;;10.15;4.43;;;;;24.90;98774.00;;;;5055341;28;20099;-64
2023/10/11 11:35:28;;;;;;;17.75;4.40;;;;;25.00;98764.00;;;;5054510;28;20120;-64
2023/10/11 11:38:02;;;;;;;12.27;4.65;;;;;25.10;98764.00;;;;5055162;28;20051;-62
2023/10/11 11:40:36;;;;;;;13.10;4.65;;;;;25.20;98757.00;;;;5054066;28;20037;-63
2023/10/11 11:43:03;;;;;;;10.05;4.18;;;;;25.20;98758.00;;;;5054018;28;20052;-62
2023/10/11 11:45:35;;;;;;;10.90;3.90;;;;;25.20;98752.00;;;;5054439;28;20127;-63
2023/10/11 11:48:05;;;;;;;12.93;4.22;;;;;25.30;98757.00;;;;5055162;28;20078;-65
2023/10/11 11:50:37;;;;;;;10.65;4.22;;;;;25.30;98765.00;;;;5054791;28;20045;-64
2023/10/11 11:53:05;;;;;;;11.88;4.05;;;;;25.30;98757.00;;;;5054743;28;20111;-65
2023/10/11 11:55:39;;;;;;;10.63;4.25;;;;;25.40;98755.00;;;;5054138;28;20040;-65
2023/10/11 11:58:10;;;;;;;;;;;;;25.40;98748.00;;;;5055065;28;20128;-64
2023/10/11 12:00:45;;;;;;;8.70;4.10;;;;;25.50;98748.00;;;;5053420;28;20396;-64
2023/10/11 12:03:12;;;;;;;11.00;3.70;;;;;25.50;98752.00;;;;5054597;28;20095;-65
2023/10/11 12:05:42;;;;;;;11.13;4.18;;;;;25.60;98748.00;;;;5054062;28;20060;-64
2023/10/11 12:08:20;;;;;;;5.95;3.50;;;;;25.60;98757.00;;;;5054389;28;20086;-65
2023/10/11 12:10:49;;;;;;;12.63;4.55;;;;;25.60;98749.00;;;;5054186;28;20064;-65
2023/10/11 12:13:23;;;;;;;13.38;4.72;;;;;25.60;98756.00;;;;5054308;28;20049;-65
2023/10/11 12:15:54;;;;;;;15.40;4.05;;;;;25.70;98752.00;;;;5054108;28;20051;-65
2023/10/11 12:18:35;;;;;;;10.98;3.80;;;;;25.60;98750.00;;;;5054074;28;20072;-65
2023/10/11 12:21:11;;;;;;;14.73;4.10;;;;;25.60;98744.00;;;;5053174;28;20045;-63
2023/10/11 12:23:46;;;;;;;14.15;4.50;;;;;25.60;98739.00;;;;5053546;28;20521;-64
2023/10/11 12:26:16;;;;;;;12.90;4.28;;;;;25.70;98740.00;;;;5053458;28;20045;-64
2023/10/11 12:28:47;;;;;;;7.85;3.95;;;;;25.80;98733.00;;;;5053840;28;20049;-64
2023/10/11 12:31:17;;;;;;;11.88;4.65;;;;;25.90;98733.00;;;;5052865;28;20094;-63
2023/10/11 12:33:47;;;;;;;11.90;4.47;;;;;26.00;98732.00;;;;5053335;28;20071;-64
2023/10/11 12:36:19;;;;;;;8.95;4.00;;;;;26.10;98736.00;;;;5053934;28;20067;-64
2023/10/11 12:38:48;;;;;;;12.25;4.55;;;;;26.00;98728.00;;;;5052589;28;20049;-63
2023/10/11 12:41:16;;;;;;;12.05;4.28;;;;;26.10;98727.00;;;;5052814;28;20410;-64
2023/10/11 12:43:45;;;;;;;11.98;4.40;;;;;26.00;98730.00;;;;5053227;28;20057;-63
2023/10/11 12:46:12;;;;;;;11.85;4.90;;;;;26.00;98731.00;;;;5054040;28;20041;-62
2023/10/11 12:48:44;;;;;;;12.00;4.45;;;;;26.00;98724.00;;;;5054485;28;20115;-64
2023/10/11 12:51:10;;;;;;;9.52;4.57;;;;;26.00;98728.00;;;;5053931;28;20048;-64
2023/10/11 12:53:37;;;;;;;9.68;3.72;;;;;26.00;98718.00;;;;5053148;28;20065;-63
2023/10/11 12:56:04;;;;;;;13.35;4.43;;;;;26.00;98717.00;;;;5053781;28;20449;-63
2023/10/11 12:58:39;;;;;;;17.95;4.43;;;;;26.10;98707.00;;;;5053602;28;20049;-64
2023/10/11 13:01:11;;;;;;;12.68;4.40;;;;;26.20;98713.00;;;;5053509;28;20063;-63
2023/10/11 13:03:40;;;;;;;14.13;4.30;;;;;26.30;98712.00;;;;5052112;28;20083;-63
2023/10/11 13:06:10;;;;;;;14.43;4.32;;;;;26.50;98714.00;;;;5053453;28;20129;-63
2023/10/11 13:08:37;;;;;;;10.95;4.43;;;;;26.50;98714.00;;;;5053766;28;20044;-63
2023/10/11 13:11:12;;;;;;;12.88;4.97;;;;;26.50;98706.00;;;;5053852;28;20059;-63
2023/10/11 13:13:40;;;;;;;14.30;5.93;;;;;26.50;98711.00;;;;5052877;28;20048;-63